createdAt,value
2023-02-09T00:01:46.904Z,80.30
2023-02-09T00:05:03.607Z,80.40
2023-02-09T00:08:19.839Z,77.40
2023-02-09T00:11:48.330Z,80.68
2023-02-09T00:15:04.845Z,78.43
2023-02-09T00:18:21.124Z,81.00
2023-02-09T00:21:37.435Z,80.45
2023-02-09T00:24:55.060Z,78.90
2023-02-09T00:28:12.362Z,78.98
2023-02-09T00:31:28.749Z,78.50
2023-02-09T00:34:46.956Z,82.33
2023-02-09T00:38:03.144Z,80.25
2023-02-09T00:41:22.707Z,80.92
2023-02-09T00:47:52.361Z,77.03
2023-02-09T00:51:08.930Z,77.95
2023-02-09T00:54:25.624Z,77.53
2023-02-09T00:57:41.701Z,79.98
2023-02-09T01:00:58.323Z,80.85
2023-02-09T01:04:15.112Z,81.08
2023-02-09T01:07:31.668Z,77.95
2023-02-09T01:10:48.408Z,75.73
2023-02-09T01:14:06.299Z,76.55
2023-02-09T01:17:22.593Z,76.45
2023-02-09T01:20:39.087Z,76.60
2023-02-09T01:23:56.378Z,80.45
2023-02-09T01:27:12.684Z,78.80
2023-02-09T01:30:29.227Z,79.45
2023-02-09T01:33:45.391Z,74.25
2023-02-09T01:37:01.551Z,77.98
2023-02-09T01:40:19.925Z,74.83
2023-02-09T01:43:39.830Z,75.50
2023-02-09T01:46:56.394Z,75.33
2023-02-09T01:50:13.110Z,74.25
2023-02-09T01:53:30.095Z,71.80
2023-02-09T01:56:49.618Z,74.35
2023-02-09T02:00:10.378Z,76.08
2023-02-09T02:03:36.796Z,75.38
2023-02-09T02:06:53.874Z,75.43
2023-02-09T02:10:12.458Z,75.38
2023-02-09T02:13:30.526Z,75.88
2023-02-09T02:16:54.589Z,74.40
2023-02-09T02:21:01.223Z,70.05
2023-02-09T02:25:03.618Z,67.80
2023-02-09T02:28:48.814Z,70.85
2023-02-09T02:32:41.051Z,70.63
2023-02-09T02:36:03.066Z,71.53
2023-02-09T02:39:23.720Z,71.43
2023-02-09T02:42:54.179Z,73.25
2023-02-09T02:46:15.136Z,73.58
2023-02-09T02:49:36.959Z,74.30
2023-02-09T02:52:57.270Z,73.68
2023-02-09T02:56:17.947Z,70.45
2023-02-09T02:59:37.503Z,70.88
2023-02-09T03:06:13.266Z,70.83
2023-02-09T03:12:52.455Z,69.30
2023-02-09T03:16:21.148Z,70.15
2023-02-09T03:19:46.802Z,69.95
2023-02-09T03:23:07.651Z,70.43
2023-02-09T03:26:33.617Z,67.58
2023-02-09T03:29:54.004Z,68.60
2023-02-09T03:33:14.899Z,67.58
2023-02-09T03:36:31.602Z,68.95
2023-02-09T03:39:48.063Z,67.13
2023-02-09T03:43:04.359Z,68.03
2023-02-09T03:46:20.733Z,64.78
2023-02-09T03:49:39.978Z,64.58
2023-02-09T03:52:56.119Z,66.83
2023-02-09T03:56:14.403Z,66.50
2023-02-09T03:59:31.302Z,67.60
2023-02-09T04:02:47.741Z,68.10
2023-02-09T04:06:03.969Z,69.38
2023-02-09T04:09:20.854Z,68.33
2023-02-09T04:12:36.867Z,68.70
2023-02-09T04:15:53.492Z,67.68
2023-02-09T04:19:10.605Z,69.00
2023-02-09T04:22:27.072Z,67.88
2023-02-09T04:25:43.363Z,68.50
2023-02-09T04:28:59.741Z,65.90
2023-02-09T04:32:16.033Z,66.13
2023-02-09T04:35:46.434Z,65.50
2023-02-09T04:39:03.834Z,66.28
2023-02-09T04:42:19.962Z,65.23
2023-02-09T04:45:36.038Z,66.10
2023-02-09T04:48:53.067Z,65.60
2023-02-09T04:52:09.447Z,65.63
2023-02-09T04:55:27.221Z,63.10
2023-02-09T04:58:57.603Z,65.80
2023-02-09T05:02:14.010Z,63.88
2023-02-09T05:05:30.799Z,65.25
2023-02-09T05:08:47.231Z,65.83
2023-02-09T05:12:03.420Z,68.15
2023-02-09T05:15:20.394Z,66.93
2023-02-09T05:18:36.446Z,66.48
2023-02-09T05:21:52.829Z,67.65
2023-02-09T05:25:09.028Z,67.33
2023-02-09T05:28:25.426Z,66.70
2023-02-09T05:31:42.013Z,69.70
2023-02-09T05:34:58.368Z,68.30
2023-02-09T05:38:15.049Z,69.18
2023-02-09T05:41:45.264Z,68.40
2023-02-09T05:45:01.414Z,69.03
2023-02-09T05:48:17.868Z,68.43
2023-02-09T05:51:34.348Z,68.28
2023-02-09T05:54:52.078Z,69.50
2023-02-09T05:58:08.204Z,70.38
2023-02-09T06:01:24.496Z,69.05
2023-02-09T06:04:41.427Z,69.00
2023-02-09T06:07:58.700Z,70.20
2023-02-09T06:11:15.360Z,71.15
2023-02-09T06:14:32.128Z,71.50
2023-02-09T06:17:48.311Z,72.20
2023-02-09T06:21:04.682Z,69.85
2023-02-09T06:24:21.451Z,69.70
2023-02-09T06:27:38.042Z,68.70
2023-02-09T06:30:56.495Z,69.35
2023-02-09T06:34:13.103Z,68.08
2023-02-09T06:37:29.393Z,70.85
2023-02-09T06:40:46.008Z,68.88
2023-02-09T06:44:02.717Z,70.48
2023-02-09T06:47:20.036Z,69.30
2023-02-09T06:50:36.759Z,70.98
2023-02-09T06:53:53.728Z,71.35
2023-02-09T06:57:10.212Z,69.28
2023-02-09T07:00:28.690Z,68.70
2023-02-09T07:03:45.138Z,70.37
2023-02-09T07:07:01.746Z,67.80
2023-02-09T07:10:21.633Z,65.73
2023-02-09T07:13:39.579Z,65.75
2023-02-09T07:16:56.102Z,65.98
2023-02-09T07:20:17.011Z,66.35
2023-02-09T07:23:33.641Z,66.55
2023-02-09T07:26:50.062Z,65.65
2023-02-09T07:30:06.183Z,62.58
2023-02-09T07:33:23.456Z,61.83
2023-02-09T07:36:39.891Z,64.63
2023-02-09T07:39:56.561Z,65.93
2023-02-09T07:43:13.991Z,62.15
2023-02-09T07:46:31.593Z,61.40
2023-02-09T07:49:48.046Z,61.65
2023-02-09T07:53:06.897Z,62.20
2023-02-09T07:56:23.214Z,61.63
2023-02-09T07:59:39.908Z,61.70
2023-02-09T08:02:56.995Z,61.83
2023-02-09T08:06:21.780Z,64.38
2023-02-09T08:09:39.683Z,60.53
2023-02-09T08:13:05.937Z,65.30
2023-02-09T08:16:27.765Z,59.55
2023-02-09T08:19:43.925Z,64.15
2023-02-09T08:23:06.931Z,61.43
2023-02-09T08:26:24.211Z,61.53
2023-02-09T08:29:42.625Z,61.83
2023-02-09T08:33:02.903Z,61.53
2023-02-09T08:36:20.815Z,62.08
2023-02-09T08:39:39.252Z,62.28
2023-02-09T08:42:55.458Z,58.48
2023-02-09T08:46:17.142Z,60.38
2023-02-09T08:49:33.897Z,58.18
2023-02-09T08:52:50.481Z,60.43
2023-02-09T08:56:07.127Z,62.63
2023-02-09T08:59:24.219Z,62.68
2023-02-09T09:02:41.893Z,65.93
2023-02-09T09:09:15.036Z,65.43
2023-02-09T09:12:33.151Z,69.43
2023-02-09T09:15:49.796Z,64.23
2023-02-09T09:19:06.827Z,67.20
2023-02-09T09:22:23.448Z,360.65
2023-02-09T09:25:41.203Z,110.30
2023-02-09T09:29:03.223Z,74.40
2023-02-09T09:32:24.569Z,64.78
2023-02-09T09:35:44.273Z,64.80
2023-02-09T09:39:02.104Z,63.03
2023-02-09T09:42:31.261Z,64.15
2023-02-09T09:45:49.277Z,64.18
2023-02-09T09:49:07.854Z,65.35
2023-02-09T09:52:31.077Z,64.50
2023-02-09T09:55:55.923Z,66.28
2023-02-09T09:59:14.983Z,66.78
2023-02-09T10:02:36.556Z,63.53
2023-02-09T10:05:56.688Z,59.03
2023-02-09T10:09:20.103Z,60.00
2023-02-09T10:12:47.559Z,64.38
2023-02-09T10:16:06.144Z,64.23
2023-02-09T10:19:33.641Z,65.73
2023-02-09T10:22:53.454Z,77.00
2023-02-09T10:26:17.006Z,64.98
2023-02-09T10:29:35.976Z,61.10
2023-02-09T10:32:54.110Z,64.45
2023-02-09T10:36:16.472Z,64.30
2023-02-09T10:39:40.986Z,66.83
2023-02-09T10:43:05.781Z,62.88
2023-02-09T10:46:26.866Z,63.18
2023-02-09T10:49:45.278Z,61.78
2023-02-09T10:53:21.716Z,63.70
2023-02-09T10:56:51.191Z,60.35
2023-02-09T11:00:25.957Z,59.50
2023-02-09T11:03:43.882Z,58.95
2023-02-09T11:07:04.311Z,56.48
2023-02-09T11:10:23.035Z,58.63
2023-02-09T11:13:40.878Z,57.13
2023-02-09T11:17:28.935Z,56.45
2023-02-09T11:20:49.980Z,56.40
2023-02-09T11:24:14.461Z,50.75
2023-02-09T11:27:49.778Z,56.15
2023-02-09T11:31:46.740Z,55.75
2023-02-09T11:35:16.131Z,53.25
2023-02-09T11:38:39.635Z,50.63
2023-02-09T11:42:14.964Z,49.83
2023-02-09T11:45:38.202Z,48.60
2023-02-09T11:49:01.241Z,48.13
2023-02-09T11:52:20.175Z,48.18
2023-02-09T11:55:43.324Z,64.45
2023-02-09T11:59:05.861Z,48.55
2023-02-09T12:02:32.175Z,46.05
2023-02-09T12:05:53.760Z,44.88
2023-02-09T12:09:21.227Z,42.50
2023-02-09T12:12:43.590Z,46.08
2023-02-09T12:16:04.584Z,42.03
2023-02-09T12:19:37.292Z,47.13
2023-02-09T12:23:11.197Z,44.25
2023-02-09T12:26:51.161Z,40.33
2023-02-09T12:30:08.039Z,44.55
2023-02-09T12:33:35.185Z,45.43
2023-02-09T12:37:34.729Z,47.37
2023-02-09T12:40:53.369Z,42.73
2023-02-09T12:44:52.168Z,31.57
2023-02-09T12:52:09.582Z,14.10
2023-02-09T12:55:30.777Z,14.50
2023-02-09T12:59:02.083Z,13.05
2023-02-09T13:02:31.394Z,10.53
2023-02-09T13:05:52.008Z,12.03
2023-02-09T13:09:13.917Z,11.00
2023-02-09T13:12:36.711Z,11.00
2023-02-09T13:16:00.775Z,11.23
2023-02-09T13:19:59.385Z,11.90
2023-02-09T13:23:38.616Z,12.00
2023-02-09T13:27:02.052Z,11.40
2023-02-09T13:30:35.270Z,11.00
2023-02-09T13:33:57.238Z,12.68
2023-02-09T13:37:29.887Z,10.95
2023-02-09T13:40:52.432Z,11.35
2023-02-09T13:44:13.292Z,11.45
2023-02-09T13:47:32.315Z,20.30
2023-02-09T13:50:56.543Z,13.78
2023-02-09T13:54:13.366Z,11.38
2023-02-09T13:57:41.791Z,9.78
2023-02-09T14:01:02.996Z,8.90
2023-02-09T14:04:23.323Z,8.58
2023-02-09T14:07:43.582Z,8.88
2023-02-09T14:11:04.577Z,8.85
2023-02-09T14:14:25.941Z,8.33
2023-02-09T14:17:44.149Z,7.98
2023-02-09T14:21:20.948Z,8.73
2023-02-09T14:24:50.030Z,8.50
2023-02-09T14:28:07.068Z,37.83
2023-02-09T14:31:30.970Z,12.28
2023-02-09T14:34:48.694Z,10.33
2023-02-09T14:38:07.880Z,10.03
2023-02-09T14:41:44.882Z,10.20
2023-02-09T14:45:05.024Z,10.60
2023-02-09T14:48:29.745Z,11.40
2023-02-09T14:51:47.794Z,10.23
2023-02-09T14:55:10.614Z,10.28
2023-02-09T14:58:34.283Z,10.58
2023-02-09T15:01:51.739Z,11.13
2023-02-09T15:05:08.556Z,12.38
2023-02-09T15:08:30.263Z,12.30
2023-02-09T15:12:00.967Z,14.80
2023-02-09T15:15:25.368Z,15.50
2023-02-09T15:18:44.599Z,15.68
2023-02-09T15:22:07.401Z,15.65
2023-02-09T15:25:22.753Z,14.55
2023-02-09T15:28:43.273Z,15.43
2023-02-09T15:35:15.659Z,16.13
2023-02-09T15:38:35.748Z,15.30
2023-02-09T15:42:06.266Z,15.08
2023-02-09T15:45:44.784Z,15.13
2023-02-09T15:49:03.381Z,16.55
2023-02-09T15:52:34.559Z,16.53
2023-02-09T15:55:52.985Z,18.23
2023-02-09T15:59:10.349Z,18.55
2023-02-09T16:02:26.916Z,18.10
2023-02-09T16:05:47.049Z,16.70
2023-02-09T16:09:05.056Z,16.83
2023-02-09T16:12:22.657Z,18.15
2023-02-09T16:15:39.175Z,18.08
2023-02-09T16:18:57.000Z,22.50
2023-02-09T16:22:16.564Z,18.63
2023-02-09T16:25:39.373Z,19.40
2023-02-09T16:28:56.645Z,16.58
2023-02-09T16:32:17.606Z,16.78
2023-02-09T16:35:36.094Z,18.63
2023-02-09T16:38:56.784Z,19.90
2023-02-09T16:42:18.882Z,20.70
2023-02-09T16:45:39.621Z,21.20
2023-02-09T16:48:57.363Z,22.45
2023-02-09T16:52:26.068Z,24.18
2023-02-09T16:55:49.282Z,24.33
2023-02-09T16:59:05.356Z,22.55
2023-02-09T17:02:41.506Z,24.10
2023-02-09T17:06:03.111Z,24.13
2023-02-09T17:09:24.853Z,23.05
2023-02-09T17:12:42.605Z,24.15
2023-02-09T17:16:03.187Z,23.53
2023-02-09T17:19:23.322Z,23.75
2023-02-09T17:22:39.649Z,23.18
2023-02-09T17:25:57.749Z,24.65
2023-02-09T17:29:18.177Z,24.30
2023-02-09T17:32:35.265Z,24.45
2023-02-09T17:36:22.404Z,25.05
2023-02-09T17:39:11.081Z,25.05
2023-02-09T17:42:31.013Z,25.68
2023-02-09T17:45:50.907Z,25.58
2023-02-09T17:49:07.164Z,26.95
2023-02-09T17:52:27.821Z,27.18
2023-02-09T17:55:45.721Z,27.93
2023-02-09T17:59:05.357Z,28.38
2023-02-09T18:02:25.773Z,28.55
2023-02-09T18:05:45.363Z,28.18
2023-02-09T18:09:02.799Z,28.45
2023-02-09T18:12:27.223Z,28.05
2023-02-09T18:15:47.113Z,26.70
2023-02-09T18:19:06.110Z,27.30
2023-02-09T18:22:28.346Z,26.05
2023-02-09T18:25:47.659Z,25.70
2023-02-09T18:29:04.519Z,26.45
2023-02-09T18:32:27.287Z,27.35
2023-02-09T18:35:47.020Z,25.63
2023-02-09T18:39:08.204Z,25.98
2023-02-09T18:42:26.454Z,24.48
2023-02-09T18:45:45.680Z,27.13
2023-02-09T18:52:24.233Z,26.45
2023-02-09T18:55:44.088Z,27.08
2023-02-09T18:59:02.499Z,28.20
2023-02-09T19:02:22.010Z,28.85
2023-02-09T19:09:01.563Z,28.73
2023-02-09T19:12:21.317Z,29.73
2023-02-09T19:15:43.017Z,29.28
2023-02-09T19:19:03.194Z,28.38
2023-02-09T19:22:25.414Z,30.18
2023-02-09T19:25:47.321Z,30.85
2023-02-09T19:29:06.762Z,29.70
2023-02-09T19:32:26.739Z,31.88
2023-02-09T19:35:43.820Z,32.40
2023-02-09T19:39:02.196Z,35.05
2023-02-09T19:42:19.451Z,33.35
2023-02-09T19:45:38.188Z,32.35
2023-02-09T19:48:56.174Z,32.03
2023-02-09T19:52:17.498Z,30.55
2023-02-09T19:55:39.979Z,29.58
2023-02-09T19:58:57.994Z,29.18
2023-02-09T20:02:16.599Z,29.43
2023-02-09T20:05:50.128Z,28.18
2023-02-09T20:09:08.760Z,29.15
2023-02-09T20:12:27.054Z,29.58
2023-02-09T20:15:47.413Z,29.75
2023-02-09T20:19:05.609Z,29.25
2023-02-09T20:22:27.577Z,27.03
2023-02-09T20:25:48.377Z,28.53
2023-02-09T20:29:07.532Z,26.43
2023-02-09T20:32:27.179Z,26.35
2023-02-09T20:35:46.189Z,27.88
2023-02-09T20:39:05.354Z,24.98
2023-02-09T20:42:35.657Z,24.23
2023-02-09T20:46:09.804Z,23.88
2023-02-09T20:49:30.580Z,22.45
2023-02-09T20:52:48.664Z,22.08
2023-02-09T20:56:06.551Z,23.33
2023-02-09T20:59:24.362Z,24.15
2023-02-09T21:02:40.914Z,24.95
2023-02-09T21:05:57.882Z,25.58
2023-02-09T21:09:16.914Z,25.90
2023-02-09T21:12:34.104Z,25.40
2023-02-09T21:15:52.641Z,27.63
2023-02-09T21:19:09.857Z,28.67
2023-02-09T21:22:26.920Z,28.43
2023-02-09T21:25:43.915Z,27.25
2023-02-09T21:29:04.315Z,27.40
2023-02-09T21:32:25.407Z,26.90
2023-02-09T21:35:42.033Z,26.98
2023-02-09T21:39:00.525Z,27.90
2023-02-09T21:42:33.932Z,27.95
2023-02-09T21:45:50.998Z,28.10
2023-02-09T21:49:08.466Z,27.78
2023-02-09T21:52:27.068Z,31.15
2023-02-09T21:55:44.090Z,33.88
2023-02-09T21:59:00.466Z,34.03
2023-02-09T22:02:21.864Z,33.63
2023-02-09T22:05:38.614Z,33.20
2023-02-09T22:08:54.913Z,36.45
2023-02-09T22:12:12.490Z,34.03
2023-02-09T22:15:28.693Z,31.30
2023-02-09T22:18:44.907Z,28.65
2023-02-09T22:22:02.310Z,27.93
2023-02-09T22:25:19.042Z,29.38
2023-02-09T22:28:36.540Z,29.98
2023-02-09T22:32:06.444Z,29.65
2023-02-09T22:35:49.843Z,28.25
2023-02-09T22:39:09.343Z,30.03
2023-02-09T22:42:28.304Z,27.45
2023-02-09T22:45:44.817Z,25.98
2023-02-09T22:49:03.831Z,24.85
2023-02-09T22:52:20.643Z,25.40
2023-02-09T22:55:37.758Z,26.48
2023-02-09T22:58:55.573Z,26.43
2023-02-09T23:02:12.699Z,26.45
2023-02-09T23:05:31.333Z,25.48
2023-02-09T23:08:51.658Z,25.75
2023-02-09T23:12:08.109Z,26.95
2023-02-09T23:15:24.869Z,26.48
2023-02-09T23:18:42.004Z,25.45
2023-02-09T23:22:06.361Z,23.98
2023-02-09T23:25:41.363Z,21.75
2023-02-09T23:29:30.750Z,20.60
2023-02-09T23:32:49.514Z,19.48
2023-02-09T23:36:14.380Z,18.65
2023-02-09T23:39:34.483Z,20.30
2023-02-09T23:42:51.782Z,19.35
2023-02-09T23:46:22.635Z,20.55
2023-02-09T23:49:43.711Z,22.38
2023-02-09T23:53:04.773Z,19.40
2023-02-09T23:56:26.812Z,19.45
2023-02-09T23:59:49.778Z,18.58
